Time;durP1;ratioP1;P1;durP2;ratioP2;P2;SDS_P1;SDS_P2;PMS_P1;PMS_P2;Temp;Humidity;BMP_temperature;BMP_pressure;BME280_temperature;BME280_humidity;BME280_pressure;Samples;Min_cycle;Max_cycle;Signal;HPM_P1;HPM_P2
2023/08/05 00:01:35;;;;;;;13.13;6.82;;;;;;;;;;5013256;28;20033;-82
2023/08/05 00:04:00;;;;;;;13.45;7.20;;;;;;;;;;4994300;28;20030;-81
2023/08/05 00:06:26;;;;;;;10.50;7.18;;;;;;;;;;5013005;28;20496;-81
2023/08/05 00:08:51;;;;;;;11.48;7.43;;;;;;;;;;5011550;28;20026;-81
2023/08/05 00:11:17;;;;;;;13.27;7.32;;;;;;;;;;5013097;28;20030;-81
2023/08/05 00:13:42;;;;;;;13.13;7.70;;;;;;;;;;5011270;28;20041;-81
2023/08/05 00:16:08;;;;;;;10.73;6.72;;;;;;;;;;5011706;28;20076;-81
2023/08/05 00:18:33;;;;;;;9.85;7.18;;;;;;;;;;5013133;28;20032;-81
2023/08/05 00:20:59;;;;;;;11.98;7.05;;;;;;;;;;5011721;28;20036;-81
2023/08/05 00:23:24;;;;;;;11.90;6.68;;;;;;;;;;5012548;28;20025;-81
2023/08/05 00:25:50;;;;;;;12.88;7.60;;;;;;;;;;5011763;28;20115;-81
2023/08/05 00:28:15;;;;;;;14.00;7.60;;;;;;;;;;5012583;28;20061;-81
2023/08/05 00:30:41;;;;;;;11.73;7.55;;;;;;;;;;4995427;28;20037;-81
2023/08/05 00:33:06;;;;;;;12.88;7.38;;;;;;;;;;4994481;28;20092;-81
2023/08/05 00:35:32;;;;;;;11.20;7.00;;;;;;;;;;5012977;28;20489;-80
2023/08/05 00:37:57;;;;;;;15.07;7.72;;;;;;;;;;5010932;28;20030;-81
2023/08/05 00:40:22;;;;;;;11.52;6.70;;;;;;;;;;5010613;28;20033;-81
2023/08/05 00:42:48;;;;;;;14.70;6.85;;;;;;;;;;5009867;28;20046;-81
2023/08/05 00:45:13;;;;;;;11.30;7.07;;;;;;;;;;5012741;28;20038;-80
2023/08/05 00:47:39;;;;;;;9.50;6.75;;;;;;;;;;5011118;28;20029;-81
2023/08/05 00:50:05;;;;;;;11.60;6.45;;;;;;;;;;5011442;28;20515;-80
2023/08/05 00:52:30;;;;;;;12.20;7.07;;;;;;;;;;5010390;28;20022;-81
2023/08/05 00:54:56;;;;;;;10.57;6.82;;;;;;;;;;5011361;28;20121;-81
2023/08/05 00:57:21;;;;;;;10.88;6.60;;;;;;;;;;4995525;28;20543;-81
2023/08/05 00:59:47;;;;;;;12.80;6.97;;;;;;;;;;5015141;28;20034;-81
2023/08/05 01:02:12;;;;;;;9.93;6.63;;;;;;;;;;4998284;28;20029;-81
2023/08/05 01:04:38;;;;;;;12.82;6.75;;;;;;;;;;5031607;28;20041;-80
2023/08/05 01:07:03;;;;;;;8.23;6.18;;;;;;;;;;5014800;28;20033;-81
2023/08/05 01:09:29;;;;;;;13.25;6.53;;;;;;;;;;5014792;28;20042;-80
2023/08/05 01:11:55;;;;;;;11.60;6.32;;;;;;;;;;5014648;28;20032;-81
2023/08/05 01:14:20;;;;;;;8.95;6.18;;;;;;;;;;5015779;28;20129;-81
2023/08/05 01:16:46;;;;;;;10.48;6.65;;;;;;;;;;5014971;28;20034;-80
2023/08/05 01:19:20;;;;;;;10.05;6.65;;;;;;;;;;5031072;28;20120;-81
2023/08/05 01:22:00;;;;;;;12.77;6.80;;;;;;;;;;5031306;28;20062;-81
2023/08/05 01:24:35;;;;;;;9.60;6.57;;;;;;;;;;5031495;28;20046;-80
2023/08/05 01:27:00;;;;;;;15.50;7.00;;;;;;;;;;5015267;28;20037;-80
2023/08/05 01:29:26;;;;;;;10.52;6.78;;;;;;;;;;5014582;28;20038;-80
2023/08/05 01:31:51;;;;;;;9.57;6.57;;;;;;;;;;5014611;28;20049;-80
2023/08/05 01:34:18;;;;;;;9.95;6.50;;;;;;;;;;4995209;28;20037;-80
2023/08/05 01:36:43;;;;;;;8.93;6.15;;;;;;;;;;5015376;28;20034;-80
2023/08/05 01:39:09;;;;;;;11.57;6.50;;;;;;;;;;5014293;28;20048;-80
2023/08/05 01:41:35;;;;;;;11.23;6.32;;;;;;;;;;5030855;28;20520;-80
2023/08/05 01:44:00;;;;;;;9.38;6.07;;;;;;;;;;5009847;28;20126;-80
2023/08/05 01:46:26;;;;;;;9.70;6.28;;;;;;;;;;5028980;28;20456;-80
2023/08/05 01:48:51;;;;;;;10.00;5.93;;;;;;;;;;5015562;28;20022;-80
2023/08/05 01:51:17;;;;;;;7.70;6.05;;;;;;;;;;5014100;28;20034;-81
2023/08/05 01:53:43;;;;;;;11.98;6.35;;;;;;;;;;4997984;28;20022;-80
2023/08/05 01:56:08;;;;;;;10.98;6.43;;;;;;;;;;5013990;28;20107;-82
2023/08/05 01:58:34;;;;;;;10.07;5.72;;;;;;;;;;5001993;28;20137;-83
2023/08/05 02:00:59;;;;;;;11.90;6.50;;;;;;;;;;4993782;28;20416;-80
2023/08/05 02:03:25;;;;;;;8.52;6.30;;;;;;;;;;5014706;28;20057;-80
2023/08/05 02:05:50;;;;;;;9.88;6.47;;;;;;;;;;5010390;28;20515;-80
2023/08/05 02:08:16;;;;;;;8.50;6.20;;;;;;;;;;5005822;28;20032;-80
2023/08/05 02:10:41;;;;;;;11.40;6.28;;;;;;;;;;5014237;28;20033;-80
2023/08/05 02:13:07;;;;;;;10.52;6.10;;;;;;;;;;5013927;28;20077;-81
2023/08/05 02:15:32;;;;;;;10.38;6.05;;;;;;;;;;4994114;28;20035;-81
2023/08/05 02:17:58;;;;;;;10.13;6.30;;;;;;;;;;5013739;28;20076;-81
2023/08/05 02:20:23;;;;;;;12.18;5.78;;;;;;;;;;5013460;28;20061;-80
2023/08/05 02:22:50;;;;;;;10.27;6.20;;;;;;;;;;5013349;28;20071;-80
2023/08/05 02:25:16;;;;;;;9.98;6.25;;;;;;;;;;5013449;28;20124;-81
2023/08/05 02:27:41;;;;;;;9.45;6.18;;;;;;;;;;5013516;28;20057;-81
2023/08/05 02:30:08;;;;;;;13.60;6.20;;;;;;;;;;5014632;28;20041;-80
2023/08/05 02:32:33;;;;;;;9.55;6.45;;;;;;;;;;5007319;28;20029;-81
2023/08/05 02:34:59;;;;;;;9.35;6.40;;;;;;;;;;5011987;28;20472;-80
2023/08/05 02:37:24;;;;;;;10.30;6.03;;;;;;;;;;5013526;28;20053;-80
2023/08/05 02:39:50;;;;;;;9.52;6.07;;;;;;;;;;5012802;28;20033;-81
2023/08/05 02:42:15;;;;;;;8.25;6.05;;;;;;;;;;5013315;28;20025;-80
2023/08/05 02:44:41;;;;;;;9.35;5.97;;;;;;;;;;5012646;28;20057;-80
2023/08/05 02:47:06;;;;;;;10.10;6.25;;;;;;;;;;4996588;28;20036;-81
2023/08/05 02:49:32;;;;;;;10.95;6.38;;;;;;;;;;5029379;28;20037;-81
2023/08/05 02:51:57;;;;;;;14.23;6.13;;;;;;;;;;5012863;28;20032;-81
2023/08/05 02:54:23;;;;;;;11.30;6.22;;;;;;;;;;5014139;28;20088;-81
2023/08/05 02:56:48;;;;;;;9.75;6.60;;;;;;;;;;5014697;28;20026;-80
2023/08/05 02:59:14;;;;;;;11.93;5.72;;;;;;;;;;5029507;28;20092;-81
2023/08/05 03:01:40;;;;;;;10.20;5.82;;;;;;;;;;5012940;28;20428;-81
2023/08/05 03:04:06;;;;;;;8.77;6.00;;;;;;;;;;5012958;28;20033;-81
2023/08/05 03:06:31;;;;;;;9.68;6.50;;;;;;;;;;5012794;28;20030;-81
2023/08/05 03:08:57;;;;;;;8.02;6.03;;;;;;;;;;5012171;28;20497;-81
2023/08/05 03:11:22;;;;;;;11.00;6.28;;;;;;;;;;4993021;28;20030;-80
2023/08/05 03:13:48;;;;;;;11.73;6.45;;;;;;;;;;5012072;28;20049;-80
2023/08/05 03:16:14;;;;;;;12.40;6.18;;;;;;;;;;5012549;28;20080;-80
2023/08/05 03:18:51;;;;;;;9.07;5.53;;;;;;;;;;5012076;28;20029;-80
2023/08/05 03:21:16;;;;;;;8.93;5.55;;;;;;;;;;4976938;28;20532;-80
2023/08/05 03:23:42;;;;;;;8.30;5.82;;;;;;;;;;5012441;28;20057;-80
2023/08/05 03:26:08;;;;;;;9.60;6.25;;;;;;;;;;5012265;28;20505;-81
2023/08/05 03:28:34;;;;;;;8.15;5.78;;;;;;;;;;4995979;28;20038;-80
2023/08/05 03:31:02;;;;;;;10.45;6.30;;;;;;;;;;4996722;28;20124;-80
2023/08/05 03:33:30;;;;;;;11.63;6.40;;;;;;;;;;5011883;28;20656;-82
2023/08/05 03:35:56;;;;;;;8.90;6.20;;;;;;;;;;4995843;28;20452;-81
2023/08/05 03:38:25;;;;;;;10.30;5.72;;;;;;;;;;5012100;28;20875;-80
2023/08/05 03:40:50;;;;;;;7.72;6.00;;;;;;;;;;4995732;28;20037;-80
2023/08/05 03:43:16;;;;;;;12.05;5.47;;;;;;;;;;5013408;28;20025;-80
2023/08/05 03:45:48;;;;;;;8.65;5.85;;;;;;;;;;5012056;28;20042;-82
2023/08/05 03:48:13;;;;;;;16.15;8.70;;;;;;;;;;5024212;28;20084;-79
2023/08/05 03:50:39;;;;;;;9.43;6.45;;;;;;;;;;5004071;28;20014;-80
2023/08/05 03:53:04;;;;;;;7.80;6.28;;;;;;;;;;5011715;28;20041;-80
2023/08/05 03:55:31;;;;;;;9.15;5.90;;;;;;;;;;4993120;28;20026;-80
2023/08/05 03:57:57;;;;;;;8.40;5.93;;;;;;;;;;5013022;28;20144;-80
2023/08/05 04:00:23;;;;;;;9.25;5.97;;;;;;;;;;5011540;28;20184;-80
2023/08/05 04:03:14;;;;;;;10.30;6.00;;;;;;;;;;5004051;28;20080;-80
2023/08/05 04:05:42;;;;;;;9.77;5.80;;;;;;;;;;5011432;28;20083;-80
2023/08/05 04:08:08;;;;;;;8.23;5.68;;;;;;;;;;5011649;28;20746;-80
2023/08/05 04:10:35;;;;;;;9.93;5.20;;;;;;;;;;5012771;28;20132;-81
2023/08/05 04:13:03;;;;;;;8.30;5.78;;;;;;;;;;5011760;28;20052;-81
2023/08/05 04:15:30;;;;;;;8.77;6.20;;;;;;;;;;5011208;28;20037;-81
2023/08/05 04:17:59;;;;;;;9.35;6.22;;;;;;;;;;4995430;28;20493;-81
2023/08/05 04:20:27;;;;;;;8.13;6.50;;;;;;;;;;5010975;28;20026;-82
2023/08/05 04:22:53;;;;;;;9.25;6.45;;;;;;;;;;4995522;28;20026;-83
2023/08/05 04:25:18;;;;;;;8.70;6.00;;;;;;;;;;5012780;28;20042;-82
2023/08/05 04:27:44;;;;;;;9.57;5.90;;;;;;;;;;5011875;28;20022;-81
2023/08/05 04:30:10;;;;;;;7.22;5.40;;;;;;;;;;5011060;28;20572;-81
2023/08/05 04:32:35;;;;;;;7.95;5.18;;;;;;;;;;5011120;28;20022;-81
2023/08/05 04:35:01;;;;;;;8.73;5.55;;;;;;;;;;5012317;28;20048;-81
2023/08/05 04:37:27;;;;;;;13.18;4.82;;;;;;;;;;5011670;28;20477;-81
2023/08/05 04:39:53;;;;;;;7.50;5.00;;;;;;;;;;5012345;28;20087;-81
2023/08/05 04:42:18;;;;;;;6.72;5.07;;;;;;;;;;5012350;28;20104;-81
2023/08/05 04:44:45;;;;;;;6.55;4.97;;;;;;;;;;5000395;28;20476;-81
2023/08/05 04:47:10;;;;;;;9.13;4.90;;;;;;;;;;5011795;28;20037;-81
2023/08/05 04:49:38;;;;;;;6.88;5.15;;;;;;;;;;5011997;28;20129;-82
2023/08/05 04:52:06;;;;;;;6.47;5.13;;;;;;;;;;5003256;28;20105;-82
2023/08/05 04:54:34;;;;;;;7.47;5.07;;;;;;;;;;5006563;28;20034;-81
2023/08/05 04:57:00;;;;;;;8.05;5.10;;;;;;;;;;5027088;28;20036;-82
2023/08/05 04:59:25;;;;;;;10.30;4.90;;;;;;;;;;5012025;28;20038;-82
2023/08/05 05:01:51;;;;;;;6.07;4.60;;;;;;;;;;5012528;28;20051;-81
2023/08/05 05:04:16;;;;;;;6.75;4.38;;;;;;;;;;5011982;28;20033;-81
2023/08/05 05:06:42;;;;;;;5.90;4.35;;;;;;;;;;5012106;28;20080;-82
2023/08/05 05:09:07;;;;;;;5.43;4.40;;;;;;;;;;5012110;28;20485;-82
2023/08/05 05:11:32;;;;;;;5.90;4.30;;;;;;;;;;5008162;28;20028;-82
2023/08/05 05:13:58;;;;;;;9.45;4.47;;;;;;;;;;5012018;28;20057;-82
2023/08/05 05:16:24;;;;;;;7.53;4.50;;;;;;;;;;5010961;28;20037;-81
2023/08/05 05:18:49;;;;;;;8.27;4.47;;;;;;;;;;5011872;28;20108;-82
2023/08/05 05:21:15;;;;;;;8.30;4.35;;;;;;;;;;4991473;28;20117;-82
2023/08/05 05:23:40;;;;;;;5.57;3.97;;;;;;;;;;5001996;28;20145;-81
2023/08/05 05:26:06;;;;;;;6.38;4.30;;;;;;;;;;5009145;28;20116;-81
2023/08/05 05:28:31;;;;;;;6.50;3.95;;;;;;;;;;5009883;28;20129;-82
2023/08/05 05:30:59;;;;;;;7.82;4.20;;;;;;;;;;5007854;28;20018;-80
2023/08/05 05:33:25;;;;;;;8.48;4.28;;;;;;;;;;5027216;28;20030;-81
2023/08/05 05:35:50;;;;;;;4.80;3.75;;;;;;;;;;5008681;28;20087;-82
2023/08/05 05:38:16;;;;;;;5.68;4.05;;;;;;;;;;5009082;28;20039;-80
2023/08/05 05:40:41;;;;;;;6.15;4.22;;;;;;;;;;5012778;28;20026;-85
2023/08/05 05:43:07;;;;;;;5.82;3.75;;;;;;;;;;5007236;28;20120;-77
2023/08/05 05:45:34;;;;;;;7.53;3.90;;;;;;;;;;5014624;28;20030;-79
2023/08/05 05:47:59;;;;;;;5.72;4.10;;;;;;;;;;5014324;28;20033;-79
2023/08/05 05:50:25;;;;;;;6.65;4.03;;;;;;;;;;5014602;28;20076;-79
2023/08/05 05:52:51;;;;;;;7.60;3.53;;;;;;;;;;5015123;28;20057;-80
2023/08/05 05:55:17;;;;;;;5.95;3.83;;;;;;;;;;5015418;28;20049;-80
2023/08/05 05:57:43;;;;;;;6.93;3.70;;;;;;;;;;5015013;28;20432;-80
2023/08/05 06:00:09;;;;;;;5.68;3.95;;;;;;;;;;5014506;28;20030;-80
2023/08/05 06:03:00;;;;;;;7.60;3.90;;;;;;;;;;5014134;28;20507;-79
2023/08/05 06:05:26;;;;;;;4.78;3.10;;;;;;;;;;5013729;28;20042;-79
2023/08/05 06:07:51;;;;;;;5.78;3.47;;;;;;;;;;5012700;28;20034;-80
2023/08/05 06:10:17;;;;;;;8.32;3.08;;;;;;;;;;5012809;28;20044;-80
2023/08/05 06:12:42;;;;;;;4.80;3.40;;;;;;;;;;5014293;28;20042;-80
2023/08/05 06:15:08;;;;;;;11.52;3.20;;;;;;;;;;5011752;28;20512;-81
2023/08/05 06:17:33;;;;;;;6.10;3.13;;;;;;;;;;5015087;28;20612;-80
2023/08/05 06:19:59;;;;;;;9.30;3.30;;;;;;;;;;5014950;28;20034;-79
2023/08/05 06:22:24;;;;;;;7.38;2.75;;;;;;;;;;5013612;28;20389;-79
2023/08/05 06:24:51;;;;;;;7.00;3.17;;;;;;;;;;4997119;28;20033;-79
2023/08/05 06:27:16;;;;;;;4.10;2.70;;;;;;;;;;5013465;28;20033;-80
2023/08/05 06:29:42;;;;;;;5.72;2.70;;;;;;;;;;5029938;28;20041;-80
2023/08/05 06:32:07;;;;;;;5.18;2.80;;;;;;;;;;5029706;28;20053;-81
2023/08/05 06:34:33;;;;;;;6.18;2.80;;;;;;;;;;5013963;28;20370;-81
2023/08/05 06:36:58;;;;;;;4.50;2.40;;;;;;;;;;5029808;28;20029;-81
2023/08/05 06:39:24;;;;;;;4.55;2.42;;;;;;;;;;5014626;28;20033;-81
2023/08/05 06:41:49;;;;;;;4.90;2.22;;;;;;;;;;5009069;28;20409;-81
2023/08/05 06:44:19;;;;;;;4.72;2.42;;;;;;;;;;4996948;28;20033;-81
2023/08/05 06:46:44;;;;;;;4.47;2.20;;;;;;;;;;5029758;28;20033;-81
2023/08/05 06:49:10;;;;;;;3.22;2.08;;;;;;;;;;5012803;28;20409;-81
2023/08/05 06:51:37;;;;;;;5.13;2.30;;;;;;;;;;5013068;28;20025;-81
2023/08/05 06:54:03;;;;;;;3.38;2.25;;;;;;;;;;5013332;28;20026;-79
2023/08/05 06:56:28;;;;;;;7.57;2.20;;;;;;;;;;5014165;28;20022;-80
2023/08/05 06:58:54;;;;;;;5.20;2.10;;;;;;;;;;5014552;28;20052;-81
2023/08/05 07:01:21;;;;;;;4.25;2.00;;;;;;;;;;5013947;28;20392;-89
2023/08/05 07:03:48;;;;;;;6.43;2.00;;;;;;;;;;5012120;28;20052;-82
2023/08/05 07:06:13;;;;;;;5.03;1.85;;;;;;;;;;5011358;28;20036;-81
2023/08/05 07:08:39;;;;;;;2.95;1.67;;;;;;;;;;5013527;28;20041;-81
2023/08/05 07:11:04;;;;;;;4.22;2.10;;;;;;;;;;5011738;28;20398;-81
2023/08/05 07:13:30;;;;;;;6.25;2.17;;;;;;;;;;5024282;28;20138;-81
2023/08/05 07:15:59;;;;;;;3.42;1.90;;;;;;;;;;5012437;28;20107;-81
2023/08/05 07:18:25;;;;;;;3.90;1.90;;;;;;;;;;5012358;28;20128;-81
2023/08/05 07:20:50;;;;;;;3.00;2.10;;;;;;;;;;5006626;28;20229;-82
2023/08/05 07:23:16;;;;;;;3.90;2.22;;;;;;;;;;5012071;28;20101;-81
2023/08/05 07:25:41;;;;;;;5.40;2.25;;;;;;;;;;5013735;28;20080;-81
2023/08/05 07:28:07;;;;;;;4.20;2.28;;;;;;;;;;5005093;28;20148;-81
2023/08/05 07:30:32;;;;;;;8.30;2.42;;;;;;;;;;5009788;28;20467;-82
2023/08/05 07:32:58;;;;;;;5.30;2.33;;;;;;;;;;4994759;28;20390;-83
2023/08/05 07:35:28;;;;;;;3.70;2.20;;;;;;;;;;5013627;28;20112;-82
2023/08/05 07:37:53;;;;;;;2.80;2.13;;;;;;;;;;5003375;28;20030;-84
2023/08/05 07:40:19;;;;;;;4.53;2.20;;;;;;;;;;5006867;28;20481;-85
2023/08/05 07:42:45;;;;;;;3.70;2.20;;;;;;;;;;5008188;28;20049;-84
2023/08/05 07:45:16;;;;;;;3.28;2.13;;;;;;;;;;5012090;28;20056;-84
2023/08/05 07:47:42;;;;;;;7.05;2.40;;;;;;;;;;5011029;28;20033;-84
2023/08/05 07:50:09;;;;;;;2.67;2.00;;;;;;;;;;5008314;28;20033;-83
2023/08/05 07:52:35;;;;;;;5.60;2.35;;;;;;;;;;5007151;28;20405;-84
2023/08/05 07:55:00;;;;;;;7.75;2.40;;;;;;;;;;5021431;28;20017;-83
2023/08/05 07:57:26;;;;;;;6.20;2.30;;;;;;;;;;5012540;28;20052;-85
2023/08/05 07:59:52;;;;;;;3.83;2.28;;;;;;;;;;5012662;28;20022;-85
2023/08/05 08:02:17;;;;;;;3.83;2.10;;;;;;;;;;5012639;28;20034;-85
2023/08/05 08:04:44;;;;;;;3.08;2.00;;;;;;;;;;5028025;28;20370;-82
2023/08/05 08:07:10;;;;;;;4.45;1.90;;;;;;;;;;5010540;28;20065;-85
2023/08/05 08:09:35;;;;;;;4.82;2.17;;;;;;;;;;5012059;28;20120;-85
2023/08/05 08:12:01;;;;;;;3.40;1.92;;;;;;;;;;4999766;28;20034;-85
2023/08/05 08:14:26;;;;;;;4.82;2.25;;;;;;;;;;5011620;28;20153;-86
2023/08/05 08:16:52;;;;;;;3.35;2.25;;;;;;;;;;5027966;28;20068;-85
2023/08/05 08:19:18;;;;;;;3.28;2.00;;;;;;;;;;5005229;28;20038;-85
2023/08/05 08:21:47;;;;;;;3.97;2.20;;;;;;;;;;5007290;28;20057;-85
2023/08/05 08:24:12;;;;;;;4.15;2.00;;;;;;;;;;5012938;28;20029;-86
2023/08/05 08:26:38;;;;;;;5.82;2.15;;;;;;;;;;5013213;28;20037;-85
2023/08/05 08:29:03;;;;;;;3.83;2.15;;;;;;;;;;5027689;28;20038;-85
2023/08/05 08:31:30;;;;;;;3.08;1.90;;;;;;;;;;5011223;28;20038;-85
2023/08/05 08:33:58;;;;;;;3.22;1.95;;;;;;;;;;5027854;28;20067;-85
2023/08/05 08:36:24;;;;;;;4.13;2.10;;;;;;;;;;5027894;28;20116;-85
2023/08/05 08:38:49;;;;;;;4.93;1.90;;;;;;;;;;5002793;28;20105;-83
2023/08/05 08:41:15;;;;;;;5.55;2.10;;;;;;;;;;4993553;28;20038;-83
2023/08/05 08:43:40;;;;;;;4.50;2.10;;;;;;;;;;5011315;28;20025;-83
2023/08/05 08:46:07;;;;;;;3.58;2.00;;;;;;;;;;5012201;28;20620;-83
2023/08/05 08:48:34;;;;;;;4.60;1.90;;;;;;;;;;4994811;28;20616;-83
2023/08/05 08:51:00;;;;;;;5.70;2.15;;;;;;;;;;4994802;28;20040;-81
2023/08/05 08:53:25;;;;;;;4.55;1.80;;;;;;;;;;4993646;28;20022;-84
2023/08/05 08:55:51;;;;;;;3.58;1.95;;;;;;;;;;5011582;28;20045;-84
2023/08/05 08:58:16;;;;;;;3.30;2.08;;;;;;;;;;5028100;28;20040;-83
2023/08/05 09:00:42;;;;;;;3.85;1.65;;;;;;;;;;5027101;28;20070;-84
2023/08/05 09:03:07;;;;;;;3.45;2.20;;;;;;;;;;4996699;28;20034;-84
2023/08/05 09:05:45;;;;;;;3.15;1.90;;;;;;;;;;5004460;28;20026;-84
2023/08/05 09:08:11;;;;;;;3.70;1.75;;;;;;;;;;5011048;28;20033;-84
2023/08/05 09:10:37;;;;;;;3.15;1.80;;;;;;;;;;5010417;28;20519;-84
2023/08/05 09:13:03;;;;;;;2.60;1.92;;;;;;;;;;4994480;28;20049;-84
2023/08/05 09:15:33;;;;;;;3.60;1.90;;;;;;;;;;5006075;28;20120;-83
2023/08/05 09:17:59;;;;;;;5.18;2.30;;;;;;;;;;5012108;28;20411;-83
2023/08/05 09:20:24;;;;;;;3.83;1.90;;;;;;;;;;5015298;28;20056;-84
2023/08/05 09:22:56;;;;;;;6.43;2.08;;;;;;;;;;5015675;28;20033;-84
2023/08/05 09:25:22;;;;;;;6.40;2.03;;;;;;;;;;5015391;28;20029;-83
2023/08/05 09:27:47;;;;;;;2.97;1.85;;;;;;;;;;5014445;28;20029;-83
2023/08/05 09:30:14;;;;;;;7.10;2.08;;;;;;;;;;5015272;28;20077;-83
2023/08/05 09:32:40;;;;;;;2.88;1.83;;;;;;;;;;5014319;28;20022;-83
2023/08/05 09:35:09;;;;;;;4.53;1.92;;;;;;;;;;5015371;28;20029;-83
2023/08/05 09:37:34;;;;;;;4.43;2.15;;;;;;;;;;5014319;28;20041;-83
2023/08/05 09:40:02;;;;;;;3.70;2.30;;;;;;;;;;5015385;28;20496;-83
2023/08/05 09:42:28;;;;;;;5.55;2.60;;;;;;;;;;5030576;28;20116;-83
2023/08/05 09:44:57;;;;;;;7.20;2.20;;;;;;;;;;5015323;28;20030;-83
2023/08/05 09:47:27;;;;;;;3.10;1.95;;;;;;;;;;5014422;28;20485;-83
2023/08/05 09:49:53;;;;;;;2.70;1.88;;;;;;;;;;5030316;28;20104;-83
2023/08/05 09:52:20;;;;;;;4.88;2.28;;;;;;;;;;5013884;28;20030;-83
2023/08/05 09:55:08;;;;;;;3.33;1.90;;;;;;;;;;4994462;28;20037;-83
2023/08/05 09:57:33;;;;;;;3.08;1.80;;;;;;;;;;5027148;28;20045;-84
2023/08/05 09:59:59;;;;;;;2.85;1.70;;;;;;;;;;5014981;28;20080;-83
2023/08/05 10:02:25;;;;;;;4.32;2.20;;;;;;;;;;5013862;28;20045;-82
2023/08/05 10:04:54;;;;;;;3.53;1.92;;;;;;;;;;5030219;28;20026;-83
2023/08/05 10:07:23;;;;;;;2.40;1.80;;;;;;;;;;5014835;28;20041;-83
2023/08/05 10:09:48;;;;;;;4.82;2.10;;;;;;;;;;5013669;28;20052;-84
2023/08/05 10:12:15;;;;;;;3.80;1.90;;;;;;;;;;5014833;28;20029;-83
2023/08/05 10:14:40;;;;;;;5.38;1.88;;;;;;;;;;4997208;28;20052;-82
2023/08/05 10:17:06;;;;;;;4.05;2.00;;;;;;;;;;5013255;28;20030;-82
2023/08/05 10:19:31;;;;;;;3.25;1.90;;;;;;;;;;4993825;28;20026;-83
2023/08/05 10:22:06;;;;;;;3.05;1.70;;;;;;;;;;5028563;28;20117;-83
2023/08/05 10:24:31;;;;;;;;;;;;;;;;;;5015137;28;20620;-84
2023/08/05 10:26:57;;;;;;;4.45;1.85;;;;;;;;;;5013780;28;19979;-84
2023/08/05 10:29:29;;;;;;;4.32;1.73;;;;;;;;;;5029119;28;20358;-83
2023/08/05 10:32:08;;;;;;;3.00;1.70;;;;;;;;;;5001593;28;20048;-83
2023/08/05 10:34:33;;;;;;;3.17;1.92;;;;;;;;;;5011928;28;20034;-84
2023/08/05 10:36:59;;;;;;;5.13;1.95;;;;;;;;;;5012662;28;20108;-84
2023/08/05 10:39:36;;;;;;;4.28;1.70;;;;;;;;;;5013803;28;20042;-84
2023/08/05 10:42:21;;;;;;;3.83;1.70;;;;;;;;;;5004673;28;20405;-83
2023/08/05 10:44:50;;;;;;;3.63;1.80;;;;;;;;;;5013680;28;20034;-84
2023/08/05 10:47:19;;;;;;;3.13;1.85;;;;;;;;;;5013557;28;20026;-84
2023/08/05 10:49:45;;;;;;;4.00;1.83;;;;;;;;;;5013442;28;20044;-84
2023/08/05 10:52:20;;;;;;;2.90;1.80;;;;;;;;;;5012320;28;20113;-84
2023/08/05 10:54:46;;;;;;;4.78;1.90;;;;;;;;;;5028598;28;20033;-84
2023/08/05 10:57:27;;;;;;;3.85;1.80;;;;;;;;;;5013228;28;20096;-84
2023/08/05 10:59:56;;;;;;;3.60;2.20;;;;;;;;;;5013648;28;20405;-84
2023/08/05 11:02:21;;;;;;;3.92;1.80;;;;;;;;;;5011910;28;20033;-84
2023/08/05 11:04:47;;;;;;;3.85;1.90;;;;;;;;;;5027674;28;20413;-85
2023/08/05 11:07:12;;;;;;;4.72;1.60;;;;;;;;;;5011538;28;20029;-83
2023/08/05 11:09:38;;;;;;;3.95;2.03;;;;;;;;;;5013907;28;20108;-83
2023/08/05 11:12:03;;;;;;;2.83;1.70;;;;;;;;;;5012211;28;20158;-85
2023/08/05 11:14:29;;;;;;;3.55;1.95;;;;;;;;;;5012733;28;20053;-83
2023/08/05 11:17:00;;;;;;;4.68;1.77;;;;;;;;;;5012295;28;20092;-83
2023/08/05 11:19:25;;;;;;;6.53;1.70;;;;;;;;;;5012829;28;20412;-83
2023/08/05 11:21:50;;;;;;;2.13;1.42;;;;;;;;;;5011144;28;20025;-84
2023/08/05 11:24:19;;;;;;;3.55;1.80;;;;;;;;;;5006661;28;20038;-81
2023/08/05 11:26:46;;;;;;;2.83;1.70;;;;;;;;;;5010263;28;20032;-82
2023/08/05 11:29:13;;;;;;;8.20;1.80;;;;;;;;;;5013486;28;20050;-84
2023/08/05 11:31:48;;;;;;;4.22;2.08;;;;;;;;;;5011781;28;20499;-81
2023/08/05 11:34:13;;;;;;;;;;;;;;;;;;5012605;28;20034;-81
2023/08/05 11:36:39;;;;;;;3.38;1.70;;;;;;;;;;5013102;28;19910;-82
2023/08/05 11:39:04;;;;;;;4.03;1.80;;;;;;;;;;5004444;28;20041;-81
2023/08/05 11:41:30;;;;;;;3.75;2.00;;;;;;;;;;5011997;28;20026;-82
2023/08/05 11:43:55;;;;;;;3.47;1.70;;;;;;;;;;5011851;28;20414;-82
2023/08/05 11:46:27;;;;;;;8.65;2.95;;;;;;;;;;4988083;28;20034;-84
2023/08/05 11:49:06;;;;;;;7.35;2.47;;;;;;;;;;5005315;28;20513;-83
2023/08/05 11:51:48;;;;;;;3.83;1.80;;;;;;;;;;5026261;28;20117;-82
2023/08/05 11:54:22;;;;;;;3.15;1.80;;;;;;;;;;5013287;28;20038;-82
2023/08/05 11:56:48;;;;;;;3.22;1.70;;;;;;;;;;5012788;28;20038;-83
2023/08/05 11:59:13;;;;;;;6.25;1.70;;;;;;;;;;5007167;28;20153;-83
2023/08/05 12:01:42;;;;;;;2.28;1.70;;;;;;;;;;4995350;28;20030;-83
2023/08/05 12:04:08;;;;;;;3.85;1.70;;;;;;;;;;5012892;28;20084;-84
2023/08/05 12:06:33;;;;;;;2.97;1.70;;;;;;;;;;5011548;28;20529;-84
2023/08/05 12:08:59;;;;;;;2.92;1.60;;;;;;;;;;5012563;28;20083;-83
2023/08/05 12:11:24;;;;;;;2.22;1.65;;;;;;;;;;5013317;28;20038;-84
2023/08/05 12:13:50;;;;;;;4.38;1.58;;;;;;;;;;5013064;28;20100;-83
2023/08/05 12:16:18;;;;;;;4.22;1.80;;;;;;;;;;5012272;28;20409;-83
2023/08/05 12:18:44;;;;;;;7.35;1.75;;;;;;;;;;4989338;28;20026;-82
2023/08/05 12:21:10;;;;;;;3.55;1.77;;;;;;;;;;5005754;28;20065;-82
2023/08/05 12:23:40;;;;;;;4.18;1.80;;;;;;;;;;4999566;28;20033;-83
2023/08/05 12:26:06;;;;;;;2.72;1.80;;;;;;;;;;5002733;28;20038;-82
2023/08/05 12:28:32;;;;;;;2.40;1.70;;;;;;;;;;5011848;28;20108;-82
2023/08/05 12:30:57;;;;;;;2.80;1.80;;;;;;;;;;5012816;28;20038;-82
2023/08/05 12:33:23;;;;;;;4.07;1.70;;;;;;;;;;5012488;28;20065;-82
2023/08/05 12:35:48;;;;;;;8.05;1.90;;;;;;;;;;5027916;28;20080;-81
2023/08/05 12:38:14;;;;;;;2.88;1.80;;;;;;;;;;5012545;28;20148;-82
2023/08/05 12:40:39;;;;;;;2.88;1.92;;;;;;;;;;5008183;28;20037;-81
2023/08/05 12:43:05;;;;;;;4.32;1.95;;;;;;;;;;5012877;28;20096;-81
2023/08/05 12:45:30;;;;;;;4.93;2.00;;;;;;;;;;5027823;28;20044;-80
2023/08/05 12:47:56;;;;;;;4.03;2.08;;;;;;;;;;5012541;28;20026;-81
2023/08/05 12:50:21;;;;;;;10.98;2.10;;;;;;;;;;5010382;28;20034;-80
2023/08/05 12:52:46;;;;;;;3.85;2.25;;;;;;;;;;5010269;28;20026;-81
2023/08/05 12:55:12;;;;;;;5.15;2.10;;;;;;;;;;5021667;28;20061;-81
2023/08/05 12:57:37;;;;;;;2.90;1.70;;;;;;;;;;5016076;28;20064;-81
2023/08/05 13:00:03;;;;;;;5.72;2.00;;;;;;;;;;5031399;28;20092;-82
2023/08/05 13:02:28;;;;;;;4.15;1.95;;;;;;;;;;4998272;28;20033;-82
2023/08/05 13:04:54;;;;;;;2.85;1.70;;;;;;;;;;5014730;28;20068;-81
2023/08/05 13:07:20;;;;;;;6.50;1.70;;;;;;;;;;5015736;28;20029;-82
2023/08/05 13:09:45;;;;;;;4.00;1.70;;;;;;;;;;5014956;28;20041;-82
2023/08/05 13:12:11;;;;;;;3.05;1.88;;;;;;;;;;5015602;28;20032;-82
2023/08/05 13:14:37;;;;;;;3.65;1.83;;;;;;;;;;4998410;28;20048;-84
2023/08/05 13:17:02;;;;;;;2.75;1.60;;;;;;;;;;5014447;28;20037;-82
2023/08/05 13:19:28;;;;;;;5.57;1.73;;;;;;;;;;5014780;28;20501;-81
2023/08/05 13:21:53;;;;;;;2.58;1.90;;;;;;;;;;5014459;28;20025;-81
2023/08/05 13:24:19;;;;;;;4.20;1.77;;;;;;;;;;5014529;28;20040;-81
2023/08/05 13:26:44;;;;;;;2.17;1.48;;;;;;;;;;5014300;28;20026;-81
2023/08/05 13:29:10;;;;;;;2.60;1.65;;;;;;;;;;5015541;28;20455;-81
2023/08/05 13:31:35;;;;;;;3.40;1.90;;;;;;;;;;5013310;28;20080;-81
2023/08/05 13:34:01;;;;;;;2.28;1.70;;;;;;;;;;5015600;28;20080;-81
2023/08/05 13:36:26;;;;;;;3.35;1.63;;;;;;;;;;5015452;28;20496;-81
2023/08/05 13:38:51;;;;;;;2.97;1.77;;;;;;;;;;5015579;28;20053;-81
2023/08/05 13:41:17;;;;;;;3.10;1.80;;;;;;;;;;5013852;28;20455;-81
2023/08/05 13:43:42;;;;;;;3.45;1.90;;;;;;;;;;5015325;28;20084;-81
2023/08/05 13:46:08;;;;;;;2.97;1.85;;;;;;;;;;5013871;28;20519;-81
2023/08/05 13:48:35;;;;;;;3.60;1.80;;;;;;;;;;4997706;28;20112;-82
2023/08/05 13:51:04;;;;;;;3.00;1.95;;;;;;;;;;5014841;28;20029;-81
2023/08/05 13:53:30;;;;;;;4.05;1.80;;;;;;;;;;4997474;28;20034;-81
2023/08/05 13:55:55;;;;;;;3.30;1.92;;;;;;;;;;5014656;28;20018;-81
2023/08/05 13:58:22;;;;;;;2.60;1.90;;;;;;;;;;4997442;28;20037;-81
2023/08/05 14:00:47;;;;;;;5.50;2.00;;;;;;;;;;5014451;28;20033;-81
2023/08/05 14:03:12;;;;;;;4.05;2.00;;;;;;;;;;5013744;28;20026;-81
2023/08/05 14:05:38;;;;;;;2.67;1.83;;;;;;;;;;5013471;28;20405;-80
2023/08/05 14:08:03;;;;;;;3.20;1.95;;;;;;;;;;5030364;28;20018;-82
2023/08/05 14:10:29;;;;;;;4.68;2.00;;;;;;;;;;5029780;28;20044;-81
2023/08/05 14:12:54;;;;;;;3.70;1.85;;;;;;;;;;4993748;28;20461;-81
2023/08/05 14:15:20;;;;;;;3.65;2.10;;;;;;;;;;5027594;28;20088;-81
2023/08/05 14:17:45;;;;;;;3.67;1.88;;;;;;;;;;5013682;28;20049;-81
2023/08/05 14:20:11;;;;;;;3.17;1.90;;;;;;;;;;5014552;28;20133;-82
2023/08/05 14:22:36;;;;;;;4.43;1.90;;;;;;;;;;5029403;28;20029;-82
2023/08/05 14:25:02;;;;;;;10.98;1.85;;;;;;;;;;5013301;28;20037;-82
2023/08/05 14:27:27;;;;;;;2.78;1.90;;;;;;;;;;5013544;28;20038;-81
2023/08/05 14:29:53;;;;;;;2.90;1.80;;;;;;;;;;5014164;28;20524;-83
2023/08/05 14:32:18;;;;;;;2.92;1.90;;;;;;;;;;5014723;28;20053;-82
2023/08/05 14:34:44;;;;;;;5.07;2.33;;;;;;;;;;5012811;28;20493;-83
2023/08/05 14:37:09;;;;;;;3.10;2.00;;;;;;;;;;4996847;28;20018;-82